Time;durP1;ratioP1;P1;durP2;ratioP2;P2;SDS_P1;SDS_P2;PMS_P1;PMS_P2;Temp;Humidity;BMP_temperature;BMP_pressure;BME280_temperature;BME280_humidity;BME280_pressure;Samples;Min_cycle;Max_cycle;Signal;HPM_P1;HPM_P2
2023/01/19 00:00:09;;;;;;;14.85;11.95;;;3.20;99.90;;;;;;5080355;28;20024;-43
2023/01/19 00:02:35;;;;;;;14.60;12.00;;;3.20;99.90;;;;;;5082310;28;20059;-43
2023/01/19 00:05:02;;;;;;;15.20;12.10;;;3.20;99.90;;;;;;5081083;28;20028;-43
2023/01/19 00:07:29;;;;;;;16.48;12.05;;;3.20;99.90;;;;;;5081284;28;20101;-42
2023/01/19 00:09:54;;;;;;;15.82;11.50;;;3.20;99.90;;;;;;5082099;28;20107;-43
2023/01/19 00:12:20;;;;;;;14.23;10.88;;;3.20;99.90;;;;;;5080179;28;20032;-43
2023/01/19 00:14:45;;;;;;;16.17;11.30;;;3.20;99.90;;;;;;5081639;28;20069;-43
2023/01/19 00:17:11;;;;;;;16.83;12.18;;;3.20;99.90;;;;;;5081577;28;20067;-42
2023/01/19 00:19:36;;;;;;;15.43;11.20;;;3.30;99.90;;;;;;5098240;28;20027;-42
2023/01/19 00:22:04;;;;;;;16.38;11.35;;;3.30;99.90;;;;;;5082126;28;20054;-43
2023/01/19 00:24:30;;;;;;;13.88;10.65;;;3.30;99.90;;;;;;5082123;28;20127;-42
2023/01/19 00:26:56;;;;;;;16.40;11.50;;;3.30;99.90;;;;;;5081303;28;20078;-43
2023/01/19 00:29:22;;;;;;;16.92;12.20;;;3.30;99.90;;;;;;5082126;28;20124;-43
2023/01/19 00:31:48;;;;;;;16.65;11.55;;;3.30;99.90;;;;;;5081829;28;20028;-44
2023/01/19 00:34:14;;;;;;;17.60;10.73;;;3.30;99.90;;;;;;5080615;28;20048;-44
2023/01/19 00:36:40;;;;;;;14.30;11.20;;;3.30;99.90;;;;;;5082242;28;20031;-43
2023/01/19 00:39:05;;;;;;;16.20;11.63;;;3.40;99.90;;;;;;5081340;28;20088;-43
2023/01/19 00:44:15;;;;;;;16.83;11.95;;;3.30;99.90;;;;;;5081129;28;20054;-42
2023/01/19 00:46:41;;;;;;;17.98;12.23;;;3.40;99.90;;;;;;5081386;28;20480;-42
2023/01/19 00:49:06;;;;;;;17.73;13.23;;;3.30;99.90;;;;;;5079833;28;20093;-44
2023/01/19 00:51:32;;;;;;;16.08;13.18;;;3.40;99.90;;;;;;5081636;28;20028;-44
2023/01/19 00:54:03;;;;;;;13.85;11.40;;;3.30;99.90;;;;;;5081417;28;20134;-44
2023/01/19 00:56:29;;;;;;;16.20;11.70;;;3.30;99.90;;;;;;5080404;28;20023;-43
2023/01/19 00:58:55;;;;;;;14.23;12.27;;;3.30;99.90;;;;;;5081053;28;20112;-43
2023/01/19 01:01:20;;;;;;;17.25;12.75;;;3.30;99.90;;;;;;5080220;28;20473;-43
2023/01/19 01:03:46;;;;;;;14.55;12.90;;;3.30;99.90;;;;;;5080274;28;20993;-43
2023/01/19 01:06:12;;;;;;;16.70;12.75;;;3.30;99.90;;;;;;5081069;28;20462;-42
2023/01/19 01:08:37;;;;;;;17.52;12.82;;;3.30;99.90;;;;;;5080731;28;20024;-43
2023/01/19 01:11:06;;;;;;;15.25;13.27;;;3.30;99.90;;;;;;5081154;28;20490;-43
2023/01/19 01:13:31;;;;;;;17.27;13.27;;;3.30;99.90;;;;;;5080232;28;20468;-43
2023/01/19 01:15:57;;;;;;;18.05;12.95;;;3.30;99.90;;;;;;5080196;28;20032;-42
2023/01/19 01:18:23;;;;;;;16.02;12.23;;;3.20;99.90;;;;;;5080288;28;20443;-44
2023/01/19 01:20:48;;;;;;;15.13;12.07;;;3.30;99.90;;;;;;5081537;28;20032;-43
2023/01/19 01:23:14;;;;;;;15.60;12.70;;;3.30;99.90;;;;;;5079619;28;20020;-43
2023/01/19 01:25:41;;;;;;;18.38;12.77;;;3.20;99.90;;;;;;5081059;28;20036;-42
2023/01/19 01:28:07;;;;;;;15.93;11.50;;;3.20;99.90;;;;;;5080396;28;20035;-42
2023/01/19 01:30:39;;;;;;;13.23;10.75;;;3.20;99.90;;;;;;5080644;28;20024;-43
2023/01/19 01:33:06;;;;;;;13.55;10.75;;;3.20;99.90;;;;;;5079920;28;20034;-43
2023/01/19 01:35:32;;;;;;;15.57;11.40;;;3.30;99.90;;;;;;5080079;28;20385;-43
2023/01/19 01:37:58;;;;;;;14.73;10.63;;;3.30;99.90;;;;;;5079488;28;20079;-43
2023/01/19 01:40:24;;;;;;;15.73;11.32;;;3.30;99.90;;;;;;5080918;28;20036;-43
2023/01/19 01:42:49;;;;;;;14.73;11.60;;;3.30;99.90;;;;;;5080403;28;20023;-43
2023/01/19 01:45:28;;;;;;;13.27;10.55;;;3.30;99.90;;;;;;5077762;28;20032;-43
2023/01/19 01:48:17;;;;;;;11.70;9.35;;;3.30;99.90;;;;;;5066261;28;20100;-43
2023/01/19 01:53:36;;;;;;;14.82;10.40;;;3.30;99.90;;;;;;5080720;28;20038;-43
2023/01/19 01:56:05;;;;;;;14.82;10.18;;;3.20;99.90;;;;;;5080059;28;20038;-43
2023/01/19 01:58:32;;;;;;;12.45;10.63;;;3.20;99.90;;;;;;5079500;28;20028;-43
2023/01/19 02:03:42;;;;;;;13.23;10.85;;;3.10;99.90;;;;;;5079818;28;20133;-44
2023/01/19 02:06:09;;;;;;;13.35;10.38;;;3.10;99.90;;;;;;5078811;28;20122;-44
2023/01/19 02:14:09;;;;;;;14.52;10.82;;;2.90;99.90;;;;;;5082796;28;20030;-44
2023/01/19 02:16:36;;;;;;;14.25;10.98;;;2.90;99.90;;;;;;5084798;28;20024;-43
2023/01/19 02:19:06;;;;;;;13.77;10.73;;;2.90;99.90;;;;;;5082946;28;20422;-43
2023/01/19 02:22:00;;;;;;;12.52;10.55;;;2.80;99.90;;;;;;5084749;28;20087;-43
2023/01/19 02:24:28;;;;;;;11.55;9.85;;;2.80;99.90;;;;;;5084109;28;20054;-44
2023/01/19 02:26:54;;;;;;;12.80;10.40;;;2.70;99.90;;;;;;5083451;28;20036;-44
2023/01/19 02:29:23;;;;;;;14.65;11.02;;;2.60;99.90;;;;;;5083842;28;20016;-43
2023/01/19 02:31:49;;;;;;;11.98;9.63;;;2.50;99.90;;;;;;5084108;28;20031;-42
2023/01/19 02:34:17;;;;;;;13.52;10.00;;;2.50;99.90;;;;;;5082653;28;20050;-43
2023/01/19 02:37:07;;;;;;;11.55;9.60;;;2.50;99.90;;;;;;5084369;28;20105;-43
2023/01/19 02:39:35;;;;;;;12.05;9.82;;;2.40;99.90;;;;;;5083967;28;20826;-43
2023/01/19 02:42:21;;;;;;;10.82;9.10;;;2.40;99.90;;;;;;5083533;28;20026;-43
2023/01/19 02:44:49;;;;;;;10.23;9.15;;;2.40;99.90;;;;;;5084541;28;20108;-42
2023/01/19 02:47:15;;;;;;;12.18;9.75;;;2.40;99.90;;;;;;5083395;28;20028;-42
2023/01/19 02:49:41;;;;;;;11.00;9.02;;;2.40;99.90;;;;;;5084236;28;20032;-43
2023/01/19 02:52:14;;;;;;;11.25;9.32;;;2.40;99.90;;;;;;5083529;28;20202;-43
2023/01/19 02:55:12;;;;;;;13.02;9.70;;;2.40;99.90;;;;;;5083959;28;20027;-43
2023/01/19 02:57:46;;;;;;;13.75;9.02;;;2.30;99.90;;;;;;5038448;28;20140;-45
2023/01/19 03:00:33;;;;;;;8.32;7.43;;;2.30;99.90;;;;;;5082989;28;20035;-42
2023/01/19 03:03:14;;;;;;;9.30;7.57;;;2.40;99.90;;;;;;5073102;28;20099;-43
2023/01/19 03:06:00;;;;;;;8.15;7.22;;;2.30;99.90;;;;;;5083510;28;20040;-43
2023/01/19 03:08:36;;;;;;;7.70;6.90;;;2.40;99.90;;;;;;5083061;28;20916;-44
2023/01/19 03:11:03;;;;;;;8.10;6.50;;;2.40;99.90;;;;;;5082929;28;20140;-43
2023/01/19 03:13:41;;;;;;;7.05;6.22;;;2.40;99.90;;;;;;5082932;28;20177;-43
2023/01/19 03:16:19;;;;;;;6.47;5.88;;;2.40;99.90;;;;;;5081909;28;20028;-43
2023/01/19 03:18:50;;;;;;;6.30;5.35;;;2.40;99.90;;;;;;5083233;28;20032;-42
2023/01/19 03:21:18;;;;;;;6.00;5.40;;;2.30;99.90;;;;;;5081175;28;20550;-42
2023/01/19 03:23:45;;;;;;;5.93;5.32;;;2.30;99.90;;;;;;5082719;28;20188;-42
2023/01/19 03:26:14;;;;;;;5.68;5.13;;;2.30;99.90;;;;;;5082955;28;20028;-42
2023/01/19 03:28:42;;;;;;;5.28;4.57;;;2.30;99.90;;;;;;5072147;28;20028;-42
2023/01/19 03:31:23;;;;;;;5.03;4.10;;;2.30;99.90;;;;;;5082208;28;20024;-42
2023/01/19 03:34:05;;;;;;;4.40;4.00;;;2.30;99.90;;;;;;5071806;28;20492;-42
2023/01/19 03:36:48;;;;;;;4.38;3.53;;;2.30;99.90;;;;;;5082328;28;20028;-42
2023/01/19 03:39:20;;;;;;;3.60;2.67;;;2.30;99.90;;;;;;5073136;28;20039;-42
2023/01/19 03:41:48;;;;;;;2.83;2.17;;;2.40;99.90;;;;;;5082959;28;20024;-43
2023/01/19 03:44:15;;;;;;;3.42;2.20;;;2.40;99.90;;;;;;5081370;28;20030;-43
2023/01/19 03:46:41;;;;;;;2.05;1.77;;;2.40;99.90;;;;;;5083103;28;20115;-43
2023/01/19 03:49:07;;;;;;;1.50;1.40;;;2.40;99.90;;;;;;5083191;28;20024;-43
2023/01/19 03:51:36;;;;;;;2.47;1.60;;;2.50;99.90;;;;;;5081741;28;20032;-43
2023/01/19 03:54:03;;;;;;;1.02;1.02;;;2.50;99.90;;;;;;5077991;28;20024;-42
2023/01/19 03:56:29;;;;;;;1.20;1.00;;;2.60;99.90;;;;;;5082272;28;20546;-42
2023/01/19 03:58:55;;;;;;;2.17;1.25;;;2.60;99.90;;;;;;5081226;28;20039;-43
2023/01/19 04:01:21;;;;;;;2.03;1.00;;;2.60;99.90;;;;;;5081757;28;20016;-42
2023/01/19 04:03:51;;;;;;;1.15;0.93;;;2.70;99.90;;;;;;5082139;28;20723;-42
2023/01/19 04:06:17;;;;;;;1.65;0.90;;;2.70;99.90;;;;;;5081728;28;20036;-43
2023/01/19 04:08:43;;;;;;;0.73;0.73;;;2.70;99.90;;;;;;5082136;28;20093;-43
2023/01/19 04:11:09;;;;;;;1.70;0.70;;;2.80;99.90;;;;;;5082038;28;20032;-42
2023/01/19 04:13:35;;;;;;;1.50;0.80;;;2.80;99.90;;;;;;5082201;28;20028;-42
2023/01/19 04:16:01;;;;;;;2.35;0.93;;;2.80;99.90;;;;;;5081808;28;20024;-43
2023/01/19 04:18:32;;;;;;;1.10;0.70;;;2.90;99.90;;;;;;5082035;28;20034;-43
2023/01/19 04:21:02;;;;;;;2.20;0.80;;;2.90;99.90;;;;;;5082163;28;20432;-43
2023/01/19 04:23:28;;;;;;;0.50;0.50;;;2.90;99.90;;;;;;5082233;28;20154;-43
2023/01/19 04:26:04;;;;;;;1.08;0.57;;;2.80;99.90;;;;;;5081481;28;20035;-43
2023/01/19 04:28:31;;;;;;;0.98;0.40;;;2.80;99.90;;;;;;5081110;28;20027;-43
2023/01/19 04:30:57;;;;;;;0.68;0.40;;;2.80;99.90;;;;;;5080980;28;20074;-45
2023/01/19 04:33:23;;;;;;;1.85;0.60;;;2.80;99.90;;;;;;5080290;28;20119;-42
2023/01/19 04:35:50;;;;;;;1.52;0.60;;;2.80;99.90;;;;;;5081380;28;20040;-42
2023/01/19 04:38:19;;;;;;;0.68;0.60;;;2.70;99.90;;;;;;5080803;28;20031;-43
2023/01/19 04:40:45;;;;;;;1.08;0.60;;;2.70;99.90;;;;;;5081602;28;20105;-42
2023/01/19 04:43:11;;;;;;;2.40;0.90;;;2.70;99.90;;;;;;5081098;28;20024;-42
2023/01/19 04:45:37;;;;;;;1.65;0.70;;;2.60;99.90;;;;;;5080156;28;20051;-43
2023/01/19 04:48:03;;;;;;;2.15;0.85;;;2.60;99.90;;;;;;5080491;28;20024;-44
2023/01/19 04:50:29;;;;;;;2.47;0.90;;;2.60;99.90;;;;;;5081448;28;20026;-43
2023/01/19 04:52:55;;;;;;;1.45;0.70;;;2.60;99.90;;;;;;5081920;28;20020;-42
2023/01/19 04:55:21;;;;;;;1.52;0.90;;;2.60;99.90;;;;;;5080896;28;20496;-43
2023/01/19 04:57:46;;;;;;;2.20;1.10;;;2.60;99.90;;;;;;5081494;28;20093;-42
2023/01/19 05:00:12;;;;;;;2.63;1.08;;;2.70;99.90;;;;;;5080852;28;20031;-43
2023/01/19 05:02:38;;;;;;;2.53;1.40;;;2.70;99.90;;;;;;5081176;28;20101;-43
2023/01/19 05:05:04;;;;;;;1.77;1.20;;;2.70;99.90;;;;;;5080656;28;20028;-43
2023/01/19 05:07:30;;;;;;;3.35;1.30;;;2.70;99.90;;;;;;5081451;28;20024;-43
2023/01/19 05:09:55;;;;;;;1.25;1.10;;;2.70;99.90;;;;;;5080849;28;20500;-43
2023/01/19 05:12:21;;;;;;;2.28;1.40;;;2.70;99.90;;;;;;5081342;28;20024;-43
2023/01/19 05:14:47;;;;;;;1.63;1.40;;;2.70;99.90;;;;;;5080691;28;20047;-44
2023/01/19 05:17:12;;;;;;;1.30;1.13;;;2.80;99.90;;;;;;5080876;28;20020;-44
2023/01/19 05:19:38;;;;;;;2.03;1.25;;;2.80;99.90;;;;;;5081236;28;20555;-43
2023/01/19 05:22:04;;;;;;;2.80;1.38;;;2.80;99.90;;;;;;5080649;28;20090;-43
2023/01/19 05:24:30;;;;;;;3.05;1.60;;;2.70;99.90;;;;;;5082218;28;20016;-42
2023/01/19 05:26:56;;;;;;;1.58;1.10;;;2.70;99.90;;;;;;5080059;28;20039;-43
2023/01/19 05:29:22;;;;;;;2.38;1.25;;;2.70;99.90;;;;;;5079156;28;20152;-43
2023/01/19 05:31:47;;;;;;;1.70;1.20;;;2.70;99.90;;;;;;5080960;28;20035;-42
2023/01/19 05:34:13;;;;;;;1.80;1.10;;;2.70;99.90;;;;;;5080547;28;20486;-42
2023/01/19 05:36:39;;;;;;;1.05;0.93;;;2.70;99.90;;;;;;5079783;28;20032;-42
2023/01/19 05:39:05;;;;;;;1.77;0.93;;;2.70;99.90;;;;;;5080476;28;20038;-43
2023/01/19 05:41:31;;;;;;;4.38;0.93;;;2.80;99.90;;;;;;5080106;28;20115;-44
2023/01/19 05:43:56;;;;;;;3.22;0.90;;;2.80;99.90;;;;;;5079375;28;20035;-44
2023/01/19 05:46:23;;;;;;;1.90;0.90;;;2.80;99.90;;;;;;5080986;28;20062;-44
2023/01/19 05:48:49;;;;;;;1.48;0.90;;;2.80;99.90;;;;;;5081034;28;20059;-44
2023/01/19 05:51:14;;;;;;;1.88;0.80;;;2.80;99.90;;;;;;5079194;28;20525;-43
2023/01/19 05:53:40;;;;;;;3.20;0.82;;;2.80;99.90;;;;;;5080912;28;20024;-42
2023/01/19 05:56:08;;;;;;;2.45;1.00;;;2.90;99.90;;;;;;5079762;28;20036;-43
2023/01/19 05:58:34;;;;;;;1.10;0.70;;;2.90;99.90;;;;;;5079733;28;20024;-43
2023/01/19 06:01:05;;;;;;;2.47;1.08;;;2.90;99.90;;;;;;5080508;28;20550;-43
2023/01/19 06:03:32;;;;;;;1.73;0.90;;;2.90;99.90;;;;;;5080560;28;20035;-43
2023/01/19 06:05:59;;;;;;;4.28;1.17;;;2.90;99.90;;;;;;5079784;28;20036;-43
2023/01/19 06:08:24;;;;;;;2.80;0.88;;;2.90;99.90;;;;;;5081064;28;20509;-43
2023/01/19 06:10:50;;;;;;;4.22;1.02;;;2.80;99.90;;;;;;5081117;28;20024;-43
2023/01/19 06:13:16;;;;;;;2.40;0.68;;;2.80;99.90;;;;;;5079803;28;20104;-44
2023/01/19 06:15:42;;;;;;;3.08;1.23;;;2.80;99.90;;;;;;5081090;28;20256;-42
2023/01/19 06:18:08;;;;;;;3.20;1.10;;;2.80;99.90;;;;;;5079397;28;20157;-43
2023/01/19 06:20:34;;;;;;;4.32;1.00;;;2.90;99.90;;;;;;5080435;28;20113;-41
2023/01/19 06:23:00;;;;;;;2.70;1.10;;;2.90;99.90;;;;;;5076711;28;20713;-44
2023/01/19 06:25:28;;;;;;;4.10;1.10;;;2.90;99.90;;;;;;5079918;28;20066;-43
2023/01/19 06:27:53;;;;;;;4.35;1.27;;;2.90;99.90;;;;;;5080039;28;20027;-43
2023/01/19 06:30:19;;;;;;;6.43;1.42;;;2.90;99.90;;;;;;5077528;28;20031;-44
2023/01/19 06:32:46;;;;;;;4.95;1.20;;;3.00;99.90;;;;;;5078492;28;20062;-44
2023/01/19 06:35:12;;;;;;;3.75;1.17;;;3.00;99.90;;;;;;5079235;28;20048;-44
2023/01/19 06:37:38;;;;;;;4.38;1.08;;;3.10;99.90;;;;;;5079924;28;20035;-44
2023/01/19 06:40:04;;;;;;;2.33;0.80;;;3.10;99.90;;;;;;5078186;28;20570;-42
2023/01/19 06:42:29;;;;;;;3.88;0.90;;;3.20;99.90;;;;;;5079499;28;20020;-44
2023/01/19 06:44:55;;;;;;;6.80;1.20;;;3.20;99.90;;;;;;5080198;28;20039;-43
2023/01/19 06:47:24;;;;;;;2.53;0.90;;;3.20;99.90;;;;;;5078648;28;20054;-43
2023/01/19 06:49:56;;;;;;;4.05;1.10;;;3.20;99.90;;;;;;5079441;28;20016;-43
2023/01/19 06:52:21;;;;;;;5.85;1.20;;;3.20;99.90;;;;;;5079770;28;20028;-43
2023/01/19 06:54:47;;;;;;;4.45;1.10;;;3.20;99.90;;;;;;5078701;28;20032;-42
2023/01/19 06:57:13;;;;;;;4.80;1.33;;;3.20;99.90;;;;;;5082439;28;20028;-43
2023/01/19 06:59:39;;;;;;;5.00;1.55;;;3.20;99.90;;;;;;5083356;28;20919;-42
2023/01/19 07:02:05;;;;;;;7.78;2.05;;;3.20;99.90;;;;;;5082537;28;20028;-43
2023/01/19 07:04:32;;;;;;;4.88;1.48;;;3.20;99.90;;;;;;5082659;28;20024;-44
2023/01/19 07:06:58;;;;;;;4.10;1.50;;;3.20;99.90;;;;;;5082426;28;20220;-44
2023/01/19 07:09:24;;;;;;;4.82;1.60;;;3.20;99.90;;;;;;5081672;28;20842;-44
2023/01/19 07:11:50;;;;;;;6.03;1.80;;;3.20;99.90;;;;;;5083621;28;20036;-43
2023/01/19 07:14:15;;;;;;;7.57;1.60;;;3.20;99.90;;;;;;5081781;28;20073;-43
2023/01/19 07:16:41;;;;;;;5.20;2.22;;;3.20;99.90;;;;;;5082632;28;20028;-43
2023/01/19 07:19:09;;;;;;;5.95;1.70;;;3.20;99.90;;;;;;5082408;28;20496;-44
2023/01/19 07:21:35;;;;;;;6.35;1.83;;;3.20;99.90;;;;;;5081922;28;20031;-43
2023/01/19 07:24:01;;;;;;;6.95;1.65;;;3.30;99.90;;;;;;5082124;28;20020;-43
2023/01/19 07:26:26;;;;;;;4.85;1.60;;;3.30;99.90;;;;;;5083358;28;20043;-43
2023/01/19 07:28:55;;;;;;;3.90;1.92;;;3.30;99.90;;;;;;5083965;28;20127;-44
2023/01/19 07:31:20;;;;;;;6.13;1.73;;;3.30;99.90;;;;;;5082342;28;20052;-43
2023/01/19 07:33:46;;;;;;;6.00;2.08;;;3.40;99.90;;;;;;5082766;28;20461;-44
2023/01/19 07:36:12;;;;;;;5.63;1.98;;;3.40;99.90;;;;;;5081941;28;20702;-44
2023/01/19 07:38:38;;;;;;;8.70;2.35;;;3.40;99.90;;;;;;5083298;28;20028;-43
2023/01/19 07:41:05;;;;;;;3.78;1.80;;;3.40;99.90;;;;;;5081201;28;20031;-42
2023/01/19 07:43:32;;;;;;;4.97;2.22;;;3.40;99.90;;;;;;5081894;28;20028;-43
2023/01/19 07:45:59;;;;;;;3.35;2.05;;;3.40;99.90;;;;;;5082434;28;20090;-44
2023/01/19 07:48:25;;;;;;;8.25;2.40;;;3.40;99.90;;;;;;5082443;28;20468;-44
2023/01/19 07:50:50;;;;;;;5.57;2.50;;;3.40;99.90;;;;;;5081604;28;20035;-43
2023/01/19 07:53:16;;;;;;;6.13;3.13;;;3.40;99.90;;;;;;5082236;28;20525;-43
2023/01/19 07:55:42;;;;;;;3.63;2.63;;;3.30;99.90;;;;;;5082654;28;20633;-43
2023/01/19 07:58:08;;;;;;;5.95;2.75;;;3.30;99.90;;;;;;5081383;28;20059;-43
2023/01/19 08:00:36;;;;;;;6.35;2.53;;;3.30;99.90;;;;;;5082726;28;20024;-43
2023/01/19 08:03:02;;;;;;;2.72;2.00;;;3.20;99.90;;;;;;5082483;28;20032;-43
2023/01/19 08:05:28;;;;;;;8.65;2.67;;;3.20;99.90;;;;;;5082547;28;20101;-43
2023/01/19 08:07:57;;;;;;;4.30;2.05;;;3.20;99.90;;;;;;5082052;28;20024;-43
2023/01/19 08:10:25;;;;;;;6.55;2.50;;;3.20;99.90;;;;;;5081815;28;20031;-43
2023/01/19 08:12:52;;;;;;;6.75;2.70;;;3.20;99.90;;;;;;5081849;28;20028;-43
2023/01/19 08:15:18;;;;;;;6.72;2.55;;;3.20;99.90;;;;;;5082685;28;20107;-43
2023/01/19 08:17:44;;;;;;;5.93;2.55;;;3.20;99.90;;;;;;5081231;28;20598;-44
2023/01/19 08:20:10;;;;;;;5.93;3.08;;;3.20;99.90;;;;;;5081548;28;20024;-43
2023/01/19 08:22:36;;;;;;;8.95;2.95;;;3.20;99.90;;;;;;5081559;28;20028;-44
2023/01/19 08:25:02;;;;;;;6.45;2.90;;;3.20;99.90;;;;;;5080320;28;20030;-41
2023/01/19 08:27:29;;;;;;;6.30;3.22;;;3.20;99.90;;;;;;5081964;28;20036;-43
2023/01/19 08:29:55;;;;;;;11.95;3.17;;;3.20;99.90;;;;;;5082634;28;20025;-44
2023/01/19 08:32:20;;;;;;;7.70;3.80;;;3.30;99.90;;;;;;5080785;28;20035;-44
2023/01/19 08:34:46;;;;;;;8.10;3.90;;;3.30;99.90;;;;;;5081703;28;20048;-42
2023/01/19 08:37:11;;;;;;;5.97;3.55;;;3.30;99.90;;;;;;5080939;28;20032;-44
2023/01/19 08:39:37;;;;;;;7.18;3.80;;;3.30;99.90;;;;;;5080794;28;20028;-43
2023/01/19 08:42:02;;;;;;;8.85;3.80;;;3.30;99.90;;;;;;5081362;28;20375;-41
2023/01/19 08:44:28;;;;;;;5.90;3.67;;;3.30;99.90;;;;;;5081376;28;20028;-42
2023/01/19 08:46:54;;;;;;;5.68;3.60;;;3.30;99.90;;;;;;5081464;28;20045;-43
2023/01/19 08:49:19;;;;;;;5.25;3.67;;;3.40;99.90;;;;;;5081447;28;20058;-43
2023/01/19 08:51:45;;;;;;;5.25;3.78;;;3.40;99.90;;;;;;5081319;28;20049;-43
2023/01/19 08:54:11;;;;;;;6.78;3.60;;;3.40;99.90;;;;;;5080206;28;20020;-44
2023/01/19 08:56:37;;;;;;;7.63;4.10;;;3.40;99.90;;;;;;5081208;28;20032;-44
2023/01/19 08:59:02;;;;;;;7.65;3.92;;;3.30;99.90;;;;;;5080912;28;20069;-43
2023/01/19 09:01:28;;;;;;;7.75;4.13;;;3.30;99.90;;;;;;5080872;28;20064;-42
2023/01/19 09:03:54;;;;;;;6.68;3.92;;;3.30;99.90;;;;;;5080969;28;20499;-44
2023/01/19 09:06:19;;;;;;;5.25;4.03;;;3.30;99.90;;;;;;5081719;28;20146;-42
2023/01/19 09:08:46;;;;;;;7.18;4.00;;;3.20;99.90;;;;;;5081882;28;20031;-42
2023/01/19 09:11:13;;;;;;;7.90;4.47;;;3.20;99.90;;;;;;5081404;28;20035;-42
2023/01/19 09:13:40;;;;;;;7.30;4.15;;;3.20;99.90;;;;;;5081665;28;20044;-43
2023/01/19 09:16:06;;;;;;;6.65;3.90;;;3.20;99.90;;;;;;5080006;28;20131;-42
2023/01/19 09:18:33;;;;;;;6.57;3.58;;;3.30;99.90;;;;;;5080269;28;20527;-43
2023/01/19 09:21:00;;;;;;;9.43;4.05;;;3.30;99.90;;;;;;5080277;28;20064;-43
2023/01/19 09:23:26;;;;;;;5.93;4.03;;;3.30;99.90;;;;;;5079430;28;20835;-43
2023/01/19 09:26:00;;;;;;;6.35;3.72;;;3.30;99.90;;;;;;5081421;28;20125;-44
2023/01/19 09:28:26;;;;;;;7.13;4.35;;;3.40;99.90;;;;;;5080930;28;20032;-44
2023/01/19 09:30:52;;;;;;;6.13;3.97;;;3.30;99.90;;;;;;5081589;28;20028;-43
2023/01/19 09:33:18;;;;;;;5.70;4.13;;;3.40;99.90;;;;;;5080047;28;20032;-43
2023/01/19 09:35:46;;;;;;;7.70;3.55;;;3.40;99.90;;;;;;5079817;28;20059;-43
2023/01/19 09:38:14;;;;;;;8.57;3.63;;;3.40;99.90;;;;;;5079927;28;20779;-43
2023/01/19 09:40:43;;;;;;;11.75;3.72;;;3.50;99.90;;;;;;5077714;28;20030;-44
2023/01/19 09:43:27;;;;;;;8.00;3.60;;;3.50;99.90;;;;;;5080816;28;20036;-43
2023/01/19 09:45:57;;;;;;;11.18;4.00;;;3.50;99.90;;;;;;5080658;28;20036;-43
2023/01/19 09:48:27;;;;;;;9.18;4.45;;;3.60;99.90;;;;;;5080960;28;20016;-43
2023/01/19 09:50:56;;;;;;;10.38;3.53;;;3.60;99.90;;;;;;5079507;28;20434;-44
2023/01/19 09:53:31;;;;;;;10.32;3.45;;;3.70;99.90;;;;;;5080894;28;20016;-43
2023/01/19 09:55:56;;;;;;;8.65;2.47;;;3.80;99.90;;;;;;5080308;28;20488;-47
2023/01/19 09:58:22;;;;;;;8.13;2.60;;;3.80;99.90;;;;;;5079984;28;20069;-43
2023/01/19 10:01:26;;;;;;;7.13;3.17;;;4.00;99.90;;;;;;5080743;28;20035;-43
2023/01/19 10:04:22;;;;;;;7.55;2.88;;;4.10;99.90;;;;;;5069085;28;20606;-43
2023/01/19 10:06:49;;;;;;;5.93;2.13;;;4.20;99.90;;;;;;5079287;28;20082;-43
2023/01/19 10:09:53;;;;;;;6.65;1.92;;;4.30;99.90;;;;;;5079831;28;20056;-43
2023/01/19 10:12:58;;;;;;;7.05;1.88;;;4.40;99.90;;;;;;5040223;28;20040;-44
2023/01/19 10:15:23;;;;;;;7.22;2.08;;;4.50;99.90;;;;;;5080306;28;20387;-42
2023/01/19 10:17:54;;;;;;;8.95;2.10;;;4.60;99.90;;;;;;5079989;28;20042;-43
2023/01/19 10:20:27;;;;;;;8.73;1.83;;;4.60;99.90;;;;;;5079606;28;20567;-40
2023/01/19 10:22:58;;;;;;;5.57;1.85;;;4.70;99.90;;;;;;5080128;28;20024;-44
2023/01/19 10:25:24;;;;;;;6.25;2.10;;;4.70;99.90;;;;;;5079556;28;20364;-43
2023/01/19 10:27:50;;;;;;;5.13;1.67;;;4.80;99.90;;;;;;5080565;28;20471;-43
2023/01/19 10:30:27;;;;;;;7.30;2.17;;;4.90;99.90;;;;;;5081491;28;20483;-42
2023/01/19 10:32:53;;;;;;;8.93;2.05;;;4.90;99.90;;;;;;5073515;28;20039;-43
2023/01/19 10:35:23;;;;;;;5.50;1.52;;;5.10;99.90;;;;;;5083934;28;20550;-42
2023/01/19 10:37:55;;;;;;;7.90;1.92;;;5.10;99.90;;;;;;5083541;28;20158;-44
2023/01/19 10:40:30;;;;;;;5.82;1.40;;;5.00;99.90;;;;;;5083269;28;20486;-44
2023/01/19 10:42:56;;;;;;;8.77;1.73;;;5.00;99.90;;;;;;5084532;28;20077;-43
2023/01/19 10:45:29;;;;;;;10.02;1.80;;;4.90;99.90;;;;;;5083878;28;20042;-43
2023/01/19 10:47:57;;;;;;;5.80;2.42;;;4.90;99.90;;;;;;5080467;28;20024;-43
2023/01/19 10:50:32;;;;;;;9.80;3.25;;;4.80;99.90;;;;;;5083739;28;20497;-43
2023/01/19 10:53:00;;;;;;;13.27;4.53;;;4.80;99.90;;;;;;5082385;28;20093;-43
2023/01/19 10:55:31;;;;;;;5.50;3.40;;;4.80;99.90;;;;;;5084062;28;20070;-44
2023/01/19 10:57:58;;;;;;;6.80;3.70;;;4.70;99.90;;;;;;5083373;28;20103;-44
2023/01/19 11:00:32;;;;;;;12.05;4.10;;;4.70;99.90;;;;;;5083613;28;20024;-43
2023/01/19 11:02:58;;;;;;;13.52;4.47;;;4.70;99.90;;;;;;5083657;28;20396;-44
2023/01/19 11:05:27;;;;;;;11.93;4.78;;;4.70;99.90;;;;;;5084474;28;20033;-43
2023/01/19 11:07:53;;;;;;;9.07;4.40;;;4.70;99.90;;;;;;5082881;28;20617;-44
2023/01/19 11:10:23;;;;;;;14.98;5.65;;;4.70;99.90;;;;;;5083178;28;20032;-43
2023/01/19 11:13:11;;;;;;;15.27;6.18;;;4.70;99.90;;;;;;5083077;28;20055;-44
2023/01/19 11:15:46;;;;;;;9.15;5.32;;;4.70;99.90;;;;;;5063021;28;20024;-44
2023/01/19 11:18:27;;;;;;;11.95;5.80;;;4.80;99.90;;;;;;5079133;28;20379;-43
2023/01/19 11:20:55;;;;;;;9.50;5.28;;;4.80;99.90;;;;;;5062506;28;20526;-42
2023/01/19 11:23:28;;;;;;;11.68;5.65;;;4.80;99.90;;;;;;5078649;28;20115;-44
2023/01/19 11:25:57;;;;;;;9.02;5.18;;;4.80;99.90;;;;;;5063463;28;20044;-44
2023/01/19 11:28:36;;;;;;;16.63;5.95;;;4.80;99.90;;;;;;5076738;28;20024;-42
2023/01/19 11:31:15;;;;;;;14.05;5.15;;;4.80;99.90;;;;;;5082982;28;20034;-44
2023/01/19 11:33:48;;;;;;;10.27;4.63;;;4.80;99.90;;;;;;5082639;28;20032;-42
2023/01/19 11:36:16;;;;;;;8.57;4.05;;;4.80;99.90;;;;;;5062316;28;20106;-43
2023/01/19 11:38:44;;;;;;;8.82;4.50;;;4.80;99.90;;;;;;5077939;28;20709;-44
2023/01/19 11:41:30;;;;;;;10.85;5.70;;;4.90;99.90;;;;;;5081672;28;20032;-43
2023/01/19 11:44:01;;;;;;;12.50;4.90;;;4.90;99.90;;;;;;5082826;28;20113;-43
2023/01/19 11:46:32;;;;;;;12.25;6.05;;;4.90;99.90;;;;;;5082911;28;20048;-45
2023/01/19 11:49:07;;;;;;;14.07;6.05;;;4.90;99.90;;;;;;5082313;28;20036;-43
2023/01/19 11:51:57;;;;;;;12.30;6.32;;;5.00;99.90;;;;;;5083675;28;20040;-43
2023/01/19 11:54:28;;;;;;;13.13;7.20;;;5.00;99.90;;;;;;5082659;28;20356;-43
2023/01/19 11:56:58;;;;;;;12.57;7.72;;;5.10;99.90;;;;;;5082206;28;20403;-44
2023/01/19 11:59:26;;;;;;;15.88;8.40;;;5.20;99.90;;;;;;5082526;28;20016;-44
2023/01/19 12:01:56;;;;;;;12.82;7.30;;;5.20;99.90;;;;;;5082265;28;20031;-44
2023/01/19 12:04:32;;;;;;;13.10;7.68;;;5.30;99.90;;;;;;5081785;28;20032;-42
2023/01/19 12:07:05;;;;;;;14.05;7.47;;;5.30;99.90;;;;;;5082266;28;20127;-43
2023/01/19 12:09:37;;;;;;;13.40;7.00;;;5.40;99.90;;;;;;5082763;28;20577;-43
2023/01/19 12:12:07;;;;;;;9.93;6.63;;;5.40;99.90;;;;;;5082014;28;20036;-43
2023/01/19 12:14:57;;;;;;;14.30;7.15;;;5.40;99.90;;;;;;5082575;28;20016;-43
2023/01/19 12:17:27;;;;;;;13.10;7.30;;;5.30;99.90;;;;;;5081521;28;20032;-43
2023/01/19 12:20:23;;;;;;;12.10;6.82;;;5.30;99.90;;;;;;5082075;28;20035;-43
2023/01/19 12:23:00;;;;;;;13.80;6.90;;;5.30;99.90;;;;;;5036319;28;20028;-44
2023/01/19 12:25:40;;;;;;;14.50;6.80;;;5.30;99.90;;;;;;5077608;28;20024;-44
2023/01/19 12:28:11;;;;;;;18.83;6.97;;;5.30;99.90;;;;;;5061761;28;20031;-44
2023/01/19 12:30:40;;;;;;;11.65;6.07;;;5.30;99.90;;;;;;5078035;28;20027;-43
2023/01/19 12:33:27;;;;;;;12.18;6.80;;;5.30;99.90;;;;;;5081109;28;20050;-44
2023/01/19 12:35:59;;;;;;;12.27;6.60;;;5.30;99.90;;;;;;5082676;28;20043;-43
2023/01/19 12:39:09;;;;;;;10.52;6.38;;;5.30;99.90;;;;;;5081319;28;20055;-42
2023/01/19 12:41:37;;;;;;;11.70;6.65;;;5.30;99.90;;;;;;4998065;28;20413;-42
2023/01/19 12:44:15;;;;;;;12.63;6.75;;;5.30;99.90;;;;;;4998669;28;20037;-43
2023/01/19 12:46:46;;;;;;;14.07;7.15;;;5.40;99.90;;;;;;5048084;28;20035;-43
2023/01/19 12:49:37;;;;;;;13.43;5.70;;;5.40;99.90;;;;;;5081816;28;20121;-43
2023/01/19 12:52:26;;;;;;;10.27;5.95;;;5.40;99.90;;;;;;5077065;28;20054;-43
2023/01/19 12:55:11;;;;;;;12.95;5.63;;;5.50;99.90;;;;;;5081676;28;20028;-43
2023/01/19 12:57:55;;;;;;;10.88;5.35;;;5.50;99.90;;;;;;5082239;28;20084;-43
2023/01/19 13:00:20;;;;;;;9.00;4.07;;;5.40;99.90;;;;;;5080489;28;20024;-44
2023/01/19 13:02:58;;;;;;;9.60;4.38;;;5.30;99.90;;;;;;5081740;28;20447;-44
2023/01/19 13:05:43;;;;;;;11.50;4.50;;;5.30;99.90;;;;;;5081238;28;20043;-43
2023/01/19 13:08:10;;;;;;;10.52;4.65;;;5.20;99.90;;;;;;5059780;28;20735;-43
2023/01/19 13:11:09;;;;;;;6.28;3.88;;;5.20;99.90;;;;;;5081429;28;20035;-44
2023/01/19 13:13:46;;;;;;;7.68;3.90;;;5.20;99.90;;;;;;5072836;28;20067;-44
2023/01/19 13:16:18;;;;;;;9.13;4.43;;;5.20;99.90;;;;;;5080479;28;20051;-41